sensor_id;sensor_type;location;lat;lon;timestamp;temperature;humidity
21815;DHT22;11069;48.988;8.450;2024-03-29T00:00:39;8.60;99.90
21815;DHT22;11069;48.988;8.450;2024-03-29T00:03:06;8.70;99.90
21815;DHT22;11069;48.988;8.450;2024-03-29T00:05:33;8.70;99.90
21815;DHT22;11069;48.988;8.450;2024-03-29T00:07:59;8.60;99.90
21815;DHT22;11069;48.988;8.450;2024-03-29T00:10:24;8.70;99.90
21815;DHT22;11069;48.988;8.450;2024-03-29T00:12:50;8.70;99.90
21815;DHT22;11069;48.988;8.450;2024-03-29T00:15:15;8.70;99.90
21815;DHT22;11069;48.988;8.450;2024-03-29T00:17:41;8.60;99.90
21815;DHT22;11069;48.988;8.450;2024-03-29T00:20:07;8.70;99.90
21815;DHT22;11069;48.988;8.450;2024-03-29T00:22:33;8.60;99.90
21815;DHT22;11069;48.988;8.450;2024-03-29T00:24:59;8.60;99.90
21815;DHT22;11069;48.988;8.450;2024-03-29T00:27:24;8.70;99.90
21815;DHT22;11069;48.988;8.450;2024-03-29T00:29:52;8.70;99.90
21815;DHT22;11069;48.988;8.450;2024-03-29T00:32:19;8.70;99.90
21815;DHT22;11069;48.988;8.450;2024-03-29T00:34:45;8.80;99.90
21815;DHT22;11069;48.988;8.450;2024-03-29T00:37:11;8.90;99.90
21815;DHT22;11069;48.988;8.450;2024-03-29T00:39:36;8.90;99.90
21815;DHT22;11069;48.988;8.450;2024-03-29T00:42:02;8.90;99.90
21815;DHT22;11069;48.988;8.450;2024-03-29T00:44:28;9.00;99.90
21815;DHT22;11069;48.988;8.450;2024-03-29T00:46:54;9.00;99.90
21815;DHT22;11069;48.988;8.450;2024-03-29T00:49:19;9.00;99.90
21815;DHT22;11069;48.988;8.450;2024-03-29T00:51:45;9.10;99.90
21815;DHT22;11069;48.988;8.450;2024-03-29T00:54:10;9.20;99.90
21815;DHT22;11069;48.988;8.450;2024-03-29T00:56:36;9.30;99.90
21815;DHT22;11069;48.988;8.450;2024-03-29T00:59:01;9.30;99.90
21815;DHT22;11069;48.988;8.450;2024-03-29T01:01:27;9.40;99.90
21815;DHT22;11069;48.988;8.450;2024-03-29T01:03:53;9.40;99.90
21815;DHT22;11069;48.988;8.450;2024-03-29T01:06:19;9.40;99.90
21815;DHT22;11069;48.988;8.450;2024-03-29T01:08:45;9.50;99.90
21815;DHT22;11069;48.988;8.450;2024-03-29T01:11:10;9.40;99.90
21815;DHT22;11069;48.988;8.450;2024-03-29T01:13:36;9.50;99.90
21815;DHT22;11069;48.988;8.450;2024-03-29T01:16:02;9.50;99.90
21815;DHT22;11069;48.988;8.450;2024-03-29T01:18:27;9.60;99.90
21815;DHT22;11069;48.988;8.450;2024-03-29T01:20:53;9.60;99.90
21815;DHT22;11069;48.988;8.450;2024-03-29T01:23:18;9.60;99.90
21815;DHT22;11069;48.988;8.450;2024-03-29T01:25:44;9.70;99.90
21815;DHT22;11069;48.988;8.450;2024-03-29T01:28:09;9.70;99.90
21815;DHT22;11069;48.988;8.450;2024-03-29T01:30:35;9.70;99.90
21815;DHT22;11069;48.988;8.450;2024-03-29T01:33:00;9.70;99.90
21815;DHT22;11069;48.988;8.450;2024-03-29T01:35:26;9.80;99.90
21815;DHT22;11069;48.988;8.450;2024-03-29T01:37:51;9.90;99.90
21815;DHT22;11069;48.988;8.450;2024-03-29T01:40:17;9.90;99.70
21815;DHT22;11069;48.988;8.450;2024-03-29T01:42:43;9.90;99.70
21815;DHT22;11069;48.988;8.450;2024-03-29T01:45:09;9.90;99.90
21815;DHT22;11069;48.988;8.450;2024-03-29T01:47:35;9.90;99.90
21815;DHT22;11069;48.988;8.450;2024-03-29T01:50:01;10.00;99.80
21815;DHT22;11069;48.988;8.450;2024-03-29T01:52:27;10.00;99.90
21815;DHT22;11069;48.988;8.450;2024-03-29T01:54:53;10.00;99.90
21815;DHT22;11069;48.988;8.450;2024-03-29T01:57:19;10.10;99.90
21815;DHT22;11069;48.988;8.450;2024-03-29T01:59:46;10.10;99.60
21815;DHT22;11069;48.988;8.450;2024-03-29T02:02:13;10.20;99.90
21815;DHT22;11069;48.988;8.450;2024-03-29T02:04:40;10.10;99.90
21815;DHT22;11069;48.988;8.450;2024-03-29T02:07:07;10.20;99.60
21815;DHT22;11069;48.988;8.450;2024-03-29T02:09:32;10.30;99.20
21815;DHT22;11069;48.988;8.450;2024-03-29T02:11:58;10.30;99.10
21815;DHT22;11069;48.988;8.450;2024-03-29T02:14:24;10.30;99.00
21815;DHT22;11069;48.988;8.450;2024-03-29T02:16:49;10.40;99.00
21815;DHT22;11069;48.988;8.450;2024-03-29T02:19:15;10.30;99.60
21815;DHT22;11069;48.988;8.450;2024-03-29T02:21:44;10.30;99.90
21815;DHT22;11069;48.988;8.450;2024-03-29T02:24:12;10.00;99.90
21815;DHT22;11069;48.988;8.450;2024-03-29T02:26:40;10.00;99.90
21815;DHT22;11069;48.988;8.450;2024-03-29T02:29:08;9.90;99.90
21815;DHT22;11069;48.988;8.450;2024-03-29T02:31:38;9.90;99.90
21815;DHT22;11069;48.988;8.450;2024-03-29T02:34:03;10.00;99.90
21815;DHT22;11069;48.988;8.450;2024-03-29T02:36:29;10.20;99.80
21815;DHT22;11069;48.988;8.450;2024-03-29T02:38:54;10.20;99.90
21815;DHT22;11069;48.988;8.450;2024-03-29T02:41:21;10.10;99.90
21815;DHT22;11069;48.988;8.450;2024-03-29T02:43:47;10.10;99.90
21815;DHT22;11069;48.988;8.450;2024-03-29T02:46:13;10.00;99.90
21815;DHT22;11069;48.988;8.450;2024-03-29T02:48:38;9.90;99.90
21815;DHT22;11069;48.988;8.450;2024-03-29T02:51:04;9.90;99.90
21815;DHT22;11069;48.988;8.450;2024-03-29T02:53:29;9.80;99.90
21815;DHT22;11069;48.988;8.450;2024-03-29T02:55:55;9.80;99.90
21815;DHT22;11069;48.988;8.450;2024-03-29T02:58:21;9.90;99.90
21815;DHT22;11069;48.988;8.450;2024-03-29T03:00:46;10.10;99.90
21815;DHT22;11069;48.988;8.450;2024-03-29T03:03:15;10.20;99.90
21815;DHT22;11069;48.988;8.450;2024-03-29T03:05:41;10.20;99.90
21815;DHT22;11069;48.988;8.450;2024-03-29T03:08:07;10.20;99.90
21815;DHT22;11069;48.988;8.450;2024-03-29T03:10:51;10.40;99.90
21815;DHT22;11069;48.988;8.450;2024-03-29T03:13:26;10.40;99.90
21815;DHT22;11069;48.988;8.450;2024-03-29T03:15:52;10.20;99.90
21815;DHT22;11069;48.988;8.450;2024-03-29T03:18:17;9.90;99.90
21815;DHT22;11069;48.988;8.450;2024-03-29T03:20:53;9.80;99.90
21815;DHT22;11069;48.988;8.450;2024-03-29T03:23:19;9.90;99.90
21815;DHT22;11069;48.988;8.450;2024-03-29T03:25:58;9.90;99.90
21815;DHT22;11069;48.988;8.450;2024-03-29T03:28:24;10.20;99.80
21815;DHT22;11069;48.988;8.450;2024-03-29T03:30:51;10.40;99.90
21815;DHT22;11069;48.988;8.450;2024-03-29T03:33:17;10.60;99.90
21815;DHT22;11069;48.988;8.450;2024-03-29T03:35:43;10.70;99.90
21815;DHT22;11069;48.988;8.450;2024-03-29T03:38:09;10.80;99.90
21815;DHT22;11069;48.988;8.450;2024-03-29T03:40:35;10.80;99.90
21815;DHT22;11069;48.988;8.450;2024-03-29T03:43:04;10.90;99.90
21815;DHT22;11069;48.988;8.450;2024-03-29T03:45:38;10.80;99.90
21815;DHT22;11069;48.988;8.450;2024-03-29T03:48:06;10.70;99.90
21815;DHT22;11069;48.988;8.450;2024-03-29T03:50:32;10.60;99.90
21815;DHT22;11069;48.988;8.450;2024-03-29T03:52:57;10.70;99.80
21815;DHT22;11069;48.988;8.450;2024-03-29T03:55:23;10.80;98.00
21815;DHT22;11069;48.988;8.450;2024-03-29T03:57:49;10.90;98.50
21815;DHT22;11069;48.988;8.450;2024-03-29T04:00:15;10.90;98.10
21815;DHT22;11069;48.988;8.450;2024-03-29T04:02:41;10.90;99.70
21815;DHT22;11069;48.988;8.450;2024-03-29T04:05:07;10.90;99.20
21815;DHT22;11069;48.988;8.450;2024-03-29T04:07:33;10.90;98.80
21815;DHT22;11069;48.988;8.450;2024-03-29T04:09:58;10.90;99.40
21815;DHT22;11069;48.988;8.450;2024-03-29T04:12:24;10.90;98.70
21815;DHT22;11069;48.988;8.450;2024-03-29T04:14:49;11.00;98.50
21815;DHT22;11069;48.988;8.450;2024-03-29T04:17:15;11.10;98.00
21815;DHT22;11069;48.988;8.450;2024-03-29T04:19:40;11.20;97.50
21815;DHT22;11069;48.988;8.450;2024-03-29T04:22:06;11.30;97.90
21815;DHT22;11069;48.988;8.450;2024-03-29T04:24:32;11.30;98.40
21815;DHT22;11069;48.988;8.450;2024-03-29T04:26:57;11.30;97.40
21815;DHT22;11069;48.988;8.450;2024-03-29T04:29:23;11.40;98.50
21815;DHT22;11069;48.988;8.450;2024-03-29T04:31:49;11.40;97.90
21815;DHT22;11069;48.988;8.450;2024-03-29T04:34:14;11.40;99.50
21815;DHT22;11069;48.988;8.450;2024-03-29T04:36:40;11.30;99.90
21815;DHT22;11069;48.988;8.450;2024-03-29T04:39:05;11.30;99.70
21815;DHT22;11069;48.988;8.450;2024-03-29T04:41:32;11.40;98.80
21815;DHT22;11069;48.988;8.450;2024-03-29T04:44:00;11.50;99.30
21815;DHT22;11069;48.988;8.450;2024-03-29T04:46:30;11.50;99.90
21815;DHT22;11069;48.988;8.450;2024-03-29T04:48:55;11.40;98.90
21815;DHT22;11069;48.988;8.450;2024-03-29T04:51:21;11.60;97.30
21815;DHT22;11069;48.988;8.450;2024-03-29T04:53:46;11.60;97.50
21815;DHT22;11069;48.988;8.450;2024-03-29T04:56:12;11.70;96.50
21815;DHT22;11069;48.988;8.450;2024-03-29T04:58:38;11.70;97.40
21815;DHT22;11069;48.988;8.450;2024-03-29T05:01:03;11.70;96.40
21815;DHT22;11069;48.988;8.450;2024-03-29T05:03:29;11.70;97.20
21815;DHT22;11069;48.988;8.450;2024-03-29T05:05:56;11.70;96.60
21815;DHT22;11069;48.988;8.450;2024-03-29T05:08:22;11.80;95.60
21815;DHT22;11069;48.988;8.450;2024-03-29T05:10:51;11.80;96.10
21815;DHT22;11069;48.988;8.450;2024-03-29T05:13:17;11.80;95.20
21815;DHT22;11069;48.988;8.450;2024-03-29T05:15:45;11.90;94.60
21815;DHT22;11069;48.988;8.450;2024-03-29T05:18:11;11.80;95.50
21815;DHT22;11069;48.988;8.450;2024-03-29T05:20:36;11.80;95.20
21815;DHT22;11069;48.988;8.450;2024-03-29T05:23:02;11.80;96.20
21815;DHT22;11069;48.988;8.450;2024-03-29T05:25:27;11.70;97.00
21815;DHT22;11069;48.988;8.450;2024-03-29T05:27:53;11.70;96.50
21815;DHT22;11069;48.988;8.450;2024-03-29T05:30:19;11.60;97.40
21815;DHT22;11069;48.988;8.450;2024-03-29T05:32:45;11.50;96.10
21815;DHT22;11069;48.988;8.450;2024-03-29T05:35:10;11.40;97.90
21815;DHT22;11069;48.988;8.450;2024-03-29T05:37:36;11.60;95.00
21815;DHT22;11069;48.988;8.450;2024-03-29T05:40:02;11.50;98.00
21815;DHT22;11069;48.988;8.450;2024-03-29T05:42:32;11.40;99.10
21815;DHT22;11069;48.988;8.450;2024-03-29T05:45:00;11.40;97.30
21815;DHT22;11069;48.988;8.450;2024-03-29T05:47:25;11.30;96.80
21815;DHT22;11069;48.988;8.450;2024-03-29T05:49:51;11.40;95.20
21815;DHT22;11069;48.988;8.450;2024-03-29T05:52:17;11.70;95.10
21815;DHT22;11069;48.988;8.450;2024-03-29T05:54:43;11.70;96.20
21815;DHT22;11069;48.988;8.450;2024-03-29T05:57:09;11.80;98.00
21815;DHT22;11069;48.988;8.450;2024-03-29T05:59:35;11.90;96.60
21815;DHT22;11069;48.988;8.450;2024-03-29T06:02:01;12.00;95.60
21815;DHT22;11069;48.988;8.450;2024-03-29T06:04:27;12.00;97.80
21815;DHT22;11069;48.988;8.450;2024-03-29T06:06:59;12.00;96.80
21815;DHT22;11069;48.988;8.450;2024-03-29T06:09:25;12.00;95.20
21815;DHT22;11069;48.988;8.450;2024-03-29T06:11:51;12.00;95.50
21815;DHT22;11069;48.988;8.450;2024-03-29T06:14:17;12.00;96.20
21815;DHT22;11069;48.988;8.450;2024-03-29T06:17:01;11.90;97.10
21815;DHT22;11069;48.988;8.450;2024-03-29T06:19:54;11.90;99.10
21815;DHT22;11069;48.988;8.450;2024-03-29T06:22:28;11.60;99.90
21815;DHT22;11069;48.988;8.450;2024-03-29T06:24:55;11.30;99.90
21815;DHT22;11069;48.988;8.450;2024-03-29T06:27:24;11.00;99.90
21815;DHT22;11069;48.988;8.450;2024-03-29T06:29:50;10.70;99.90
21815;DHT22;11069;48.988;8.450;2024-03-29T06:32:16;10.40;99.90
21815;DHT22;11069;48.988;8.450;2024-03-29T06:34:46;10.30;99.90
21815;DHT22;11069;48.988;8.450;2024-03-29T06:37:12;10.10;99.90
21815;DHT22;11069;48.988;8.450;2024-03-29T06:39:38;10.00;99.90
21815;DHT22;11069;48.988;8.450;2024-03-29T06:42:04;10.10;99.90
21815;DHT22;11069;48.988;8.450;2024-03-29T06:44:32;9.90;99.90
21815;DHT22;11069;48.988;8.450;2024-03-29T06:46:58;9.90;99.90
21815;DHT22;11069;48.988;8.450;2024-03-29T06:49:23;9.90;99.90
21815;DHT22;11069;48.988;8.450;2024-03-29T06:51:49;9.70;99.90
21815;DHT22;11069;48.988;8.450;2024-03-29T06:54:15;9.60;99.90
21815;DHT22;11069;48.988;8.450;2024-03-29T06:56:40;9.50;99.90
21815;DHT22;11069;48.988;8.450;2024-03-29T06:59:06;9.40;99.90
21815;DHT22;11069;48.988;8.450;2024-03-29T07:01:31;9.40;99.90
21815;DHT22;11069;48.988;8.450;2024-03-29T07:03:57;9.40;99.90
21815;DHT22;11069;48.988;8.450;2024-03-29T07:06:23;9.40;99.90
21815;DHT22;11069;48.988;8.450;2024-03-29T07:08:48;9.30;99.90
21815;DHT22;11069;48.988;8.450;2024-03-29T07:11:14;9.40;99.90
21815;DHT22;11069;48.988;8.450;2024-03-29T07:13:39;9.30;99.90
21815;DHT22;11069;48.988;8.450;2024-03-29T07:16:05;9.30;99.90
21815;DHT22;11069;48.988;8.450;2024-03-29T07:18:32;9.20;99.90
21815;DHT22;11069;48.988;8.450;2024-03-29T07:20:58;8.90;99.90
21815;DHT22;11069;48.988;8.450;2024-03-29T07:23:23;8.80;99.90
21815;DHT22;11069;48.988;8.450;2024-03-29T07:28:23;8.50;99.90
21815;DHT22;11069;48.988;8.450;2024-03-29T07:30:49;8.30;99.90
21815;DHT22;11069;48.988;8.450;2024-03-29T07:33:19;8.20;99.90
21815;DHT22;11069;48.988;8.450;2024-03-29T07:35:47;8.10;99.90
21815;DHT22;11069;48.988;8.450;2024-03-29T07:38:13;8.10;99.90
21815;DHT22;11069;48.988;8.450;2024-03-29T07:40:41;8.10;99.90
21815;DHT22;11069;48.988;8.450;2024-03-29T07:43:06;8.10;99.90
21815;DHT22;11069;48.988;8.450;2024-03-29T07:45:32;8.10;99.90
21815;DHT22;11069;48.988;8.450;2024-03-29T07:47:57;8.20;99.90
21815;DHT22;11069;48.988;8.450;2024-03-29T07:50:23;8.30;99.90
21815;DHT22;11069;48.988;8.450;2024-03-29T07:52:50;8.30;99.90
21815;DHT22;11069;48.988;8.450;2024-03-29T07:55:16;8.30;99.90
21815;DHT22;11069;48.988;8.450;2024-03-29T07:57:42;8.20;99.90
21815;DHT22;11069;48.988;8.450;2024-03-29T08:00:08;8.20;99.90
21815;DHT22;11069;48.988;8.450;2024-03-29T08:02:35;8.30;99.90
21815;DHT22;11069;48.988;8.450;2024-03-29T08:05:01;8.30;99.90
21815;DHT22;11069;48.988;8.450;2024-03-29T08:07:27;8.30;99.90
21815;DHT22;11069;48.988;8.450;2024-03-29T08:09:53;8.20;99.90
21815;DHT22;11069;48.988;8.450;2024-03-29T08:12:19;8.40;99.90
21815;DHT22;11069;48.988;8.450;2024-03-29T08:14:45;8.40;99.90
21815;DHT22;11069;48.988;8.450;2024-03-29T08:17:11;8.30;99.90
21815;DHT22;11069;48.988;8.450;2024-03-29T08:19:40;8.40;99.90
21815;DHT22;11069;48.988;8.450;2024-03-29T08:22:07;8.30;99.90
21815;DHT22;11069;48.988;8.450;2024-03-29T08:24:38;8.40;99.90
21815;DHT22;11069;48.988;8.450;2024-03-29T08:27:04;8.40;99.90
21815;DHT22;11069;48.988;8.450;2024-03-29T08:29:30;8.40;99.90
21815;DHT22;11069;48.988;8.450;2024-03-29T08:31:55;8.40;99.90
21815;DHT22;11069;48.988;8.450;2024-03-29T08:34:22;8.50;99.90
21815;DHT22;11069;48.988;8.450;2024-03-29T08:36:47;8.60;99.90
21815;DHT22;11069;48.988;8.450;2024-03-29T08:39:13;8.60;99.90
21815;DHT22;11069;48.988;8.450;2024-03-29T08:41:38;8.70;99.90
21815;DHT22;11069;48.988;8.450;2024-03-29T08:44:06;8.80;99.90
21815;DHT22;11069;48.988;8.450;2024-03-29T08:46:32;9.00;99.90
21815;DHT22;11069;48.988;8.450;2024-03-29T08:48:57;9.10;99.90
21815;DHT22;11069;48.988;8.450;2024-03-29T08:51:23;9.30;99.90
21815;DHT22;11069;48.988;8.450;2024-03-29T08:53:49;9.50;99.90
21815;DHT22;11069;48.988;8.450;2024-03-29T08:56:15;9.50;99.90
21815;DHT22;11069;48.988;8.450;2024-03-29T08:58:43;9.70;99.90
21815;DHT22;11069;48.988;8.450;2024-03-29T09:01:12;9.90;99.90
21815;DHT22;11069;48.988;8.450;2024-03-29T09:03:37;9.90;99.90
21815;DHT22;11069;48.988;8.450;2024-03-29T09:06:03;10.00;99.90
21815;DHT22;11069;48.988;8.450;2024-03-29T09:08:29;10.20;99.90
21815;DHT22;11069;48.988;8.450;2024-03-29T09:10:55;10.30;99.90
21815;DHT22;11069;48.988;8.450;2024-03-29T09:13:20;10.60;99.90
21815;DHT22;11069;48.988;8.450;2024-03-29T09:15:46;10.90;99.90
21815;DHT22;11069;48.988;8.450;2024-03-29T09:18:12;11.20;99.90
21815;DHT22;11069;48.988;8.450;2024-03-29T09:20:57;11.40;99.90
21815;DHT22;11069;48.988;8.450;2024-03-29T09:23:23;11.40;99.90
21815;DHT22;11069;48.988;8.450;2024-03-29T09:25:50;11.40;99.90
21815;DHT22;11069;48.988;8.450;2024-03-29T09:28:16;11.30;99.90
21815;DHT22;11069;48.988;8.450;2024-03-29T09:30:42;11.20;99.90
21815;DHT22;11069;48.988;8.450;2024-03-29T09:33:07;11.30;99.90
21815;DHT22;11069;48.988;8.450;2024-03-29T09:35:36;11.40;99.90
21815;DHT22;11069;48.988;8.450;2024-03-29T09:38:02;11.50;99.90
21815;DHT22;11069;48.988;8.450;2024-03-29T09:40:29;11.60;99.90
21815;DHT22;11069;48.988;8.450;2024-03-29T09:43:00;11.80;99.90
21815;DHT22;11069;48.988;8.450;2024-03-29T09:45:32;12.00;99.90
21815;DHT22;11069;48.988;8.450;2024-03-29T09:48:01;12.20;99.90
21815;DHT22;11069;48.988;8.450;2024-03-29T09:50:28;12.20;99.90
21815;DHT22;11069;48.988;8.450;2024-03-29T09:52:55;12.20;99.90
21815;DHT22;11069;48.988;8.450;2024-03-29T09:55:21;12.20;99.90
21815;DHT22;11069;48.988;8.450;2024-03-29T09:57:48;12.10;99.90
21815;DHT22;11069;48.988;8.450;2024-03-29T10:00:14;12.10;99.90
21815;DHT22;11069;48.988;8.450;2024-03-29T10:02:40;12.00;99.90
21815;DHT22;11069;48.988;8.450;2024-03-29T10:05:08;12.10;99.90
21815;DHT22;11069;48.988;8.450;2024-03-29T10:07:35;12.30;99.90
21815;DHT22;11069;48.988;8.450;2024-03-29T10:10:02;12.50;99.90
21815;DHT22;11069;48.988;8.450;2024-03-29T10:12:28;12.60;99.90
21815;DHT22;11069;48.988;8.450;2024-03-29T10:14:55;12.90;99.90
21815;DHT22;11069;48.988;8.450;2024-03-29T10:17:30;13.10;99.90
21815;DHT22;11069;48.988;8.450;2024-03-29T10:20:03;13.00;99.90
21815;DHT22;11069;48.988;8.450;2024-03-29T10:22:30;12.90;99.90
21815;DHT22;11069;48.988;8.450;2024-03-29T10:24:58;12.90;99.90
21815;DHT22;11069;48.988;8.450;2024-03-29T10:27:26;13.00;99.90
21815;DHT22;11069;48.988;8.450;2024-03-29T10:29:53;13.30;99.90
21815;DHT22;11069;48.988;8.450;2024-03-29T10:32:18;13.50;99.90
21815;DHT22;11069;48.988;8.450;2024-03-29T10:34:44;13.60;99.90
21815;DHT22;11069;48.988;8.450;2024-03-29T10:37:10;13.80;99.90
21815;DHT22;11069;48.988;8.450;2024-03-29T10:39:36;13.80;99.90
21815;DHT22;11069;48.988;8.450;2024-03-29T10:42:02;13.70;99.90
21815;DHT22;11069;48.988;8.450;2024-03-29T10:44:31;13.50;99.90
21815;DHT22;11069;48.988;8.450;2024-03-29T10:46:57;13.50;99.90
21815;DHT22;11069;48.988;8.450;2024-03-29T10:49:24;13.80;99.90
21815;DHT22;11069;48.988;8.450;2024-03-29T10:51:50;14.20;99.90
21815;DHT22;11069;48.988;8.450;2024-03-29T10:54:22;14.60;99.90
21815;DHT22;11069;48.988;8.450;2024-03-29T10:56:59;14.90;99.90
21815;DHT22;11069;48.988;8.450;2024-03-29T10:59:44;15.70;99.90
21815;DHT22;11069;48.988;8.450;2024-03-29T11:02:16;16.20;99.90
21815;DHT22;11069;48.988;8.450;2024-03-29T11:04:50;16.00;99.90
21815;DHT22;11069;48.988;8.450;2024-03-29T11:07:20;16.10;99.90
21815;DHT22;11069;48.988;8.450;2024-03-29T11:09:54;16.00;99.90
21815;DHT22;11069;48.988;8.450;2024-03-29T11:12:21;15.70;99.90
21815;DHT22;11069;48.988;8.450;2024-03-29T11:15:02;15.40;99.90
21815;DHT22;11069;48.988;8.450;2024-03-29T11:17:29;15.00;99.90
21815;DHT22;11069;48.988;8.450;2024-03-29T11:19:57;14.60;99.90
21815;DHT22;11069;48.988;8.450;2024-03-29T11:22:24;14.70;99.90
21815;DHT22;11069;48.988;8.450;2024-03-29T11:24:53;14.60;99.90
21815;DHT22;11069;48.988;8.450;2024-03-29T11:27:22;14.50;99.90
21815;DHT22;11069;48.988;8.450;2024-03-29T11:29:49;14.60;99.90
21815;DHT22;11069;48.988;8.450;2024-03-29T11:32:33;15.00;99.90
21815;DHT22;11069;48.988;8.450;2024-03-29T11:34:59;15.50;99.90
21815;DHT22;11069;48.988;8.450;2024-03-29T11:37:30;15.50;99.90
21815;DHT22;11069;48.988;8.450;2024-03-29T11:39:59;15.90;99.90
21815;DHT22;11069;48.988;8.450;2024-03-29T11:42:44;16.10;99.90
21815;DHT22;11069;48.988;8.450;2024-03-29T11:45:10;15.90;99.90
21815;DHT22;11069;48.988;8.450;2024-03-29T11:47:39;15.90;99.90
21815;DHT22;11069;48.988;8.450;2024-03-29T11:50:07;16.10;99.90
21815;DHT22;11069;48.988;8.450;2024-03-29T11:52:33;16.10;99.90
21815;DHT22;11069;48.988;8.450;2024-03-29T11:54:59;16.10;99.90
21815;DHT22;11069;48.988;8.450;2024-03-29T11:57:25;16.10;99.90
21815;DHT22;11069;48.988;8.450;2024-03-29T11:59:50;16.30;99.90
21815;DHT22;11069;48.988;8.450;2024-03-29T12:02:17;16.50;99.90
21815;DHT22;11069;48.988;8.450;2024-03-29T12:04:43;16.50;99.90
21815;DHT22;11069;48.988;8.450;2024-03-29T12:07:08;16.60;99.90
21815;DHT22;11069;48.988;8.450;2024-03-29T12:09:34;16.30;99.90
21815;DHT22;11069;48.988;8.450;2024-03-29T12:12:00;16.20;99.90
21815;DHT22;11069;48.988;8.450;2024-03-29T12:14:31;16.10;99.90
21815;DHT22;11069;48.988;8.450;2024-03-29T12:17:01;16.10;99.90
21815;DHT22;11069;48.988;8.450;2024-03-29T12:19:27;15.90;99.90
21815;DHT22;11069;48.988;8.450;2024-03-29T12:21:53;15.80;99.90
21815;DHT22;11069;48.988;8.450;2024-03-29T12:24:20;15.70;99.90
21815;DHT22;11069;48.988;8.450;2024-03-29T12:26:48;15.70;99.90
21815;DHT22;11069;48.988;8.450;2024-03-29T12:29:14;15.50;99.90
21815;DHT22;11069;48.988;8.450;2024-03-29T12:31:40;15.40;99.90
21815;DHT22;11069;48.988;8.450;2024-03-29T12:34:06;15.10;99.90
21815;DHT22;11069;48.988;8.450;2024-03-29T12:36:33;15.10;99.90
21815;DHT22;11069;48.988;8.450;2024-03-29T12:38:59;15.20;99.90
21815;DHT22;11069;48.988;8.450;2024-03-29T12:41:29;15.10;99.90
21815;DHT22;11069;48.988;8.450;2024-03-29T12:43:55;15.10;99.90
21815;DHT22;11069;48.988;8.450;2024-03-29T12:46:21;15.00;99.90
21815;DHT22;11069;48.988;8.450;2024-03-29T12:48:46;15.00;99.90
21815;DHT22;11069;48.988;8.450;2024-03-29T12:51:12;15.00;99.90
21815;DHT22;11069;48.988;8.450;2024-03-29T12:53:38;14.90;99.90
21815;DHT22;11069;48.988;8.450;2024-03-29T12:56:04;14.80;99.90
21815;DHT22;11069;48.988;8.450;2024-03-29T12:58:30;14.80;99.90
21815;DHT22;11069;48.988;8.450;2024-03-29T13:00:57;14.70;99.90
21815;DHT22;11069;48.988;8.450;2024-03-29T13:03:23;14.70;99.90
21815;DHT22;11069;48.988;8.450;2024-03-29T13:05:49;14.70;99.90
21815;DHT22;11069;48.988;8.450;2024-03-29T13:08:14;14.60;99.90
21815;DHT22;11069;48.988;8.450;2024-03-29T13:10:44;14.60;99.90
21815;DHT22;11069;48.988;8.450;2024-03-29T13:13:09;14.50;99.90
21815;DHT22;11069;48.988;8.450;2024-03-29T13:15:39;14.40;99.90
21815;DHT22;11069;48.988;8.450;2024-03-29T13:18:06;14.70;99.90
21815;DHT22;11069;48.988;8.450;2024-03-29T13:20:35;14.80;99.90
21815;DHT22;11069;48.988;8.450;2024-03-29T13:23:02;14.60;99.90
21815;DHT22;11069;48.988;8.450;2024-03-29T13:25:28;14.50;99.90
21815;DHT22;11069;48.988;8.450;2024-03-29T13:27:54;14.30;99.90
21815;DHT22;11069;48.988;8.450;2024-03-29T13:30:25;14.30;99.90
21815;DHT22;11069;48.988;8.450;2024-03-29T13:32:51;14.20;99.90
21815;DHT22;11069;48.988;8.450;2024-03-29T13:35:17;14.30;99.90
21815;DHT22;11069;48.988;8.450;2024-03-29T13:37:47;14.30;99.90
21815;DHT22;11069;48.988;8.450;2024-03-29T13:40:14;14.30;99.90
21815;DHT22;11069;48.988;8.450;2024-03-29T13:42:40;14.20;99.90
21815;DHT22;11069;48.988;8.450;2024-03-29T13:45:07;14.20;99.90
21815;DHT22;11069;48.988;8.450;2024-03-29T13:47:33;14.10;99.90
21815;DHT22;11069;48.988;8.450;2024-03-29T13:49:59;14.10;99.90
21815;DHT22;11069;48.988;8.450;2024-03-29T13:52:25;14.10;99.90
21815;DHT22;11069;48.988;8.450;2024-03-29T13:54:53;13.90;99.90
21815;DHT22;11069;48.988;8.450;2024-03-29T13:57:19;14.00;99.90
21815;DHT22;11069;48.988;8.450;2024-03-29T13:59:46;14.10;99.90
21815;DHT22;11069;48.988;8.450;2024-03-29T14:02:12;14.00;99.90
21815;DHT22;11069;48.988;8.450;2024-03-29T14:04:39;14.00;99.90
21815;DHT22;11069;48.988;8.450;2024-03-29T14:07:05;13.80;99.90
21815;DHT22;11069;48.988;8.450;2024-03-29T14:09:34;13.80;99.90
21815;DHT22;11069;48.988;8.450;2024-03-29T14:12:00;13.80;99.90
21815;DHT22;11069;48.988;8.450;2024-03-29T14:14:27;13.70;99.90
21815;DHT22;11069;48.988;8.450;2024-03-29T14:16:53;13.50;99.90
21815;DHT22;11069;48.988;8.450;2024-03-29T14:19:21;13.50;99.90
21815;DHT22;11069;48.988;8.450;2024-03-29T14:21:47;13.50;99.90
21815;DHT22;11069;48.988;8.450;2024-03-29T14:24:12;13.50;99.90
21815;DHT22;11069;48.988;8.450;2024-03-29T14:26:38;13.60;99.90
21815;DHT22;11069;48.988;8.450;2024-03-29T14:29:04;13.70;99.90
21815;DHT22;11069;48.988;8.450;2024-03-29T14:31:32;13.60;99.90
21815;DHT22;11069;48.988;8.450;2024-03-29T14:33:57;13.60;99.90
21815;DHT22;11069;48.988;8.450;2024-03-29T14:36:23;13.60;99.90
21815;DHT22;11069;48.988;8.450;2024-03-29T14:38:49;13.60;99.90
21815;DHT22;11069;48.988;8.450;2024-03-29T14:41:15;13.60;99.90
21815;DHT22;11069;48.988;8.450;2024-03-29T14:43:41;13.60;99.90
21815;DHT22;11069;48.988;8.450;2024-03-29T14:46:07;13.60;99.90
21815;DHT22;11069;48.988;8.450;2024-03-29T14:48:32;13.80;99.90
21815;DHT22;11069;48.988;8.450;2024-03-29T14:50:58;13.80;99.90
21815;DHT22;11069;48.988;8.450;2024-03-29T14:53:24;13.80;99.90
21815;DHT22;11069;48.988;8.450;2024-03-29T14:55:50;13.60;99.90
21815;DHT22;11069;48.988;8.450;2024-03-29T14:58:15;13.60;99.90
21815;DHT22;11069;48.988;8.450;2024-03-29T15:00:41;13.50;99.90
21815;DHT22;11069;48.988;8.450;2024-03-29T15:03:09;13.50;99.90
21815;DHT22;11069;48.988;8.450;2024-03-29T15:05:34;13.50;99.90
21815;DHT22;11069;48.988;8.450;2024-03-29T15:08:01;13.60;99.90
21815;DHT22;11069;48.988;8.450;2024-03-29T15:10:26;13.80;99.90
21815;DHT22;11069;48.988;8.450;2024-03-29T15:12:52;14.20;99.90
21815;DHT22;11069;48.988;8.450;2024-03-29T15:15:18;14.10;99.90
21815;DHT22;11069;48.988;8.450;2024-03-29T15:17:44;14.30;99.90
21815;DHT22;11069;48.988;8.450;2024-03-29T15:20:09;14.50;99.90
21815;DHT22;11069;48.988;8.450;2024-03-29T15:22:36;14.70;99.90
21815;DHT22;11069;48.988;8.450;2024-03-29T15:25:03;14.70;99.90
21815;DHT22;11069;48.988;8.450;2024-03-29T15:27:29;14.70;99.90
21815;DHT22;11069;48.988;8.450;2024-03-29T15:30:16;14.80;99.90
21815;DHT22;11069;48.988;8.450;2024-03-29T15:32:42;14.70;99.90
21815;DHT22;11069;48.988;8.450;2024-03-29T15:35:08;14.60;99.90